Time;durP1;ratioP1;P1;durP2;ratioP2;P2;SDS_P1;SDS_P2;PMS_P1;PMS_P2;Temp;Humidity;BMP_temperature;BMP_pressure;BME280_temperature;BME280_humidity;BME280_pressure;Samples;Min_cycle;Max_cycle;Signal;HPM_P1;HPM_P2
2023/03/30 00:02:11;;;;;;;50.83;43.40;;;;;;;6.96;100.00;100673.34;4993526;28;20189;-42
2023/03/30 00:04:41;;;;;;;54.03;45.50;;;;;;;6.97;100.00;100669.75;5000703;28;20199;-41
2023/03/30 00:07:07;;;;;;;49.53;43.40;;;;;;;7.01;100.00;100663.44;5004178;28;20212;-44
2023/03/30 00:09:32;;;;;;;55.15;44.42;;;;;;;6.98;100.00;100670.66;5003603;28;20627;-43
2023/03/30 00:12:02;;;;;;;52.42;45.75;;;;;;;6.98;100.00;100663.53;5005937;28;20164;-46
2023/03/30 00:14:28;;;;;;;52.30;43.92;;;;;;;6.99;100.00;100667.06;4995241;28;20264;-44
2023/03/30 00:16:54;;;;;;;51.78;44.58;;;;;;;6.99;100.00;100654.63;5000020;28;20201;-43
2023/03/30 00:19:20;;;;;;;53.78;45.20;;;;;;;6.99;100.00;100646.63;4995173;28;20546;-43
2023/03/30 00:21:46;;;;;;;54.50;46.30;;;;;;;6.98;100.00;100652.03;4994641;28;20205;-45
2023/03/30 00:24:12;;;;;;;53.88;45.60;;;;;;;6.97;100.00;100645.78;5001743;28;20209;-43
2023/03/30 00:26:38;;;;;;;53.78;45.47;;;;;;;6.99;100.00;100646.63;4998274;28;20299;-45
2023/03/30 00:29:03;;;;;;;56.90;46.72;;;;;;;6.97;100.00;100643.13;5000069;28;20549;-44
2023/03/30 00:31:29;;;;;;;50.45;44.95;;;;;;;7.00;100.00;100635.06;4981073;28;20191;-45
2023/03/30 00:33:55;;;;;;;58.05;47.47;;;;;;;7.01;100.00;100627.94;5004494;28;20642;-44
2023/03/30 00:36:22;;;;;;;55.13;47.35;;;;;;;7.00;100.00;100621.75;4994924;28;20204;-44
2023/03/30 00:38:47;;;;;;;57.58;47.75;;;;;;;7.02;100.00;100629.72;4995636;28;20188;-45
2023/03/30 00:41:14;;;;;;;54.97;48.25;;;;;;;7.01;100.00;100633.28;5001544;28;20220;-46
2023/03/30 00:43:59;;;;;;;58.22;47.65;;;;;;;7.04;100.00;100619.00;5000712;28;20193;-44
2023/03/30 00:46:26;;;;;;;62.55;48.03;;;;;;;7.00;100.00;100621.75;5005492;28;20207;-46
2023/03/30 00:48:56;;;;;;;56.40;46.58;;;;;;;7.04;100.00;100611.91;4993668;28;20176;-45
2023/03/30 00:51:23;;;;;;;58.42;48.72;;;;;;;7.04;100.00;100611.00;5003510;28;20327;-45
2023/03/30 00:53:51;;;;;;;62.72;48.78;;;;;;;7.03;100.00;100599.47;4999782;28;20200;-44
2023/03/30 00:56:26;;;;;;;59.67;48.08;;;;;;;7.06;100.00;100598.53;5018405;28;20212;-46
2023/03/30 00:58:53;;;;;;;58.47;47.63;;;;;;;7.05;100.00;100580.81;4998314;28;20194;-46
2023/03/30 01:01:27;;;;;;;62.75;47.70;;;;;;;7.04;100.00;100577.28;5004219;28;20290;-44
2023/03/30 01:03:56;;;;;;;58.58;47.47;;;;;;;7.05;100.00;100578.16;5000117;28;20200;-46
2023/03/30 01:06:25;;;;;;;58.33;47.55;;;;;;;7.06;100.00;100585.19;5005462;28;20517;-44
2023/03/30 01:08:54;;;;;;;60.20;46.58;;;;;;;7.04;100.00;100581.72;4996882;28;20204;-45
2023/03/30 01:11:20;;;;;;;61.17;48.90;;;;;;;7.04;100.00;100571.06;5002300;28;20176;-45
2023/03/30 01:13:51;;;;;;;57.85;46.58;;;;;;;7.04;100.00;100569.28;4989307;28;20195;-45
2023/03/30 01:16:38;;;;;;;61.72;48.95;;;;;;;7.05;100.00;100568.34;4993973;28;20205;-44
2023/03/30 01:19:22;;;;;;;60.88;47.67;;;;;;;7.07;100.00;100565.66;4999085;28;20513;-43
2023/03/30 01:22:06;;;;;;;60.45;47.50;;;;;;;7.07;100.00;100560.34;5013159;28;20181;-42
2023/03/30 01:25:05;;;;;;;62.28;47.28;;;;;;;7.05;100.00;100571.03;4999725;28;20244;-45
2023/03/30 01:27:50;;;;;;;61.75;46.53;;;;;;;7.06;100.00;100563.88;4994318;28;20208;-46
2023/03/30 01:30:53;;;;;;;58.10;47.00;;;;;;;7.07;100.00;100550.53;4996829;28;20188;-44
2023/03/30 01:33:43;;;;;;;52.92;43.83;;;;;;;7.06;100.00;100542.59;5007677;28;20230;-43
2023/03/30 01:36:16;;;;;;;58.35;45.72;;;;;;;7.08;100.00;100551.41;5008317;28;20213;-45
2023/03/30 01:38:51;;;;;;;54.88;43.85;;;;;;;7.09;100.00;100548.72;5002816;28;20267;-45
2023/03/30 01:41:44;;;;;;;60.13;44.67;;;;;;;7.08;100.00;100546.94;4993786;28;20173;-43
2023/03/30 01:44:46;;;;;;;51.70;43.47;;;;;;;7.07;100.00;100533.69;4992920;28;20213;-47
2023/03/30 01:47:36;;;;;;;54.33;43.80;;;;;;;7.06;100.00;100523.94;4994321;28;20237;-45
2023/03/30 01:50:15;;;;;;;56.25;43.92;;;;;;;7.06;100.00;100538.13;4995123;28;20184;-47
2023/03/30 01:53:10;;;;;;;60.83;45.60;;;;;;;7.05;100.00;100528.41;5001399;28;20188;-45
2023/03/30 01:55:49;;;;;;;56.45;43.40;;;;;;;7.06;100.00;100523.94;4993853;28;20769;-47
2023/03/30 01:58:32;;;;;;;54.13;43.75;;;;;;;7.05;100.00;100504.41;4994858;28;20355;-45
2023/03/30 02:01:00;;;;;;;57.60;44.08;;;;;;;7.08;100.00;100500.78;5013088;28;20192;-42
2023/03/30 02:03:30;;;;;;;56.53;43.45;;;;;;;7.07;100.00;100499.94;4998474;28;20296;-43
2023/03/30 02:06:10;;;;;;;62.97;45.42;;;;;;;7.06;100.00;100487.50;4995567;28;20663;-44
2023/03/30 02:08:38;;;;;;;58.20;44.28;;;;;;;7.06;100.00;100486.66;4993714;28;20682;-45
2023/03/30 02:11:03;;;;;;;57.65;43.45;;;;;;;7.03;100.00;100487.59;4994295;28;20948;-45
2023/03/30 02:13:31;;;;;;;56.88;44.42;;;;;;;7.04;100.00;100468.06;4996348;28;20187;-48
2023/03/30 02:16:06;;;;;;;60.13;44.88;;;;;;;7.06;100.00;100476.00;4991109;28;20303;-45
2023/03/30 02:18:31;;;;;;;57.58;43.75;;;;;;;7.07;100.00;100467.09;4992709;28;20209;-47
2023/03/30 02:20:58;;;;;;;58.33;44.25;;;;;;;7.06;100.00;100468.84;5003284;28;20654;-45
2023/03/30 02:23:30;;;;;;;64.72;46.20;;;;;;;7.06;100.00;100466.19;5002052;28;20304;-46
2023/03/30 02:25:56;;;;;;;65.57;45.65;;;;;;;7.06;100.00;100452.00;5016289;28;20217;-45
2023/03/30 02:28:22;;;;;;;63.67;45.45;;;;;;;7.09;100.00;100449.28;4994678;28;20193;-43
2023/03/30 02:30:48;;;;;;;57.67;44.25;;;;;;;7.09;100.00;100444.81;5000265;28;20247;-46
2023/03/30 02:33:32;;;;;;;64.45;45.45;;;;;;;7.12;100.00;100443.84;5002996;28;20173;-46
2023/03/30 02:36:00;;;;;;;61.13;44.70;;;;;;;7.11;100.00;100437.66;5000750;28;20211;-46
2023/03/30 02:38:29;;;;;;;58.53;44.10;;;;;;;7.12;100.00;100434.06;5005186;28;20180;-47
2023/03/30 02:40:58;;;;;;;58.83;42.60;;;;;;;7.13;100.00;100430.50;4999424;28;20663;-44
2023/03/30 02:43:32;;;;;;;60.08;43.10;;;;;;;7.19;100.00;100421.41;5005544;28;20219;-44
2023/03/30 02:46:13;;;;;;;58.60;43.53;;;;;;;7.16;100.00;100421.53;4990231;28;20746;-47
2023/03/30 02:49:19;;;;;;;59.17;43.13;;;;;;;7.17;100.00;100417.94;5007913;28;20618;-47
2023/03/30 02:52:00;;;;;;;59.55;43.00;;;;;;;7.19;100.00;100406.31;4996242;28;20291;-45
2023/03/30 02:54:49;;;;;;;57.45;42.67;;;;;;;7.18;100.00;100403.69;4995708;28;20543;-44
2023/03/30 02:57:29;;;;;;;58.20;43.10;;;;;;;7.17;100.00;100402.84;5011582;28;20684;-42
2023/03/30 03:00:16;;;;;;;58.20;43.00;;;;;;;7.16;100.00;100400.22;5001645;28;20236;-44
2023/03/30 03:02:47;;;;;;;58.42;42.28;;;;;;;7.17;100.00;100385.94;5015392;28;20298;-47
2023/03/30 03:05:24;;;;;;;56.20;42.50;;;;;;;7.19;100.00;100373.47;4995676;28;20189;-46
2023/03/30 03:07:58;;;;;;;54.63;40.67;;;;;;;7.19;100.00;100366.38;5001070;28;20185;-42
2023/03/30 03:10:24;;;;;;;54.90;41.05;;;;;;;7.18;100.00;100358.41;4996323;28;20207;-43
2023/03/30 03:12:50;;;;;;;56.25;40.85;;;;;;;7.19;100.00;100350.38;4992845;28;20663;-45
2023/03/30 03:15:16;;;;;;;56.40;41.95;;;;;;;7.20;100.00;100348.56;4991834;28;20169;-42
2023/03/30 03:17:57;;;;;;;56.50;41.00;;;;;;;7.18;100.00;100337.97;4994058;28;20230;-48
2023/03/30 03:20:29;;;;;;;60.88;41.55;;;;;;;7.19;100.00;100353.03;4991765;28;20590;-43
2023/03/30 03:22:55;;;;;;;55.83;41.20;;;;;;;7.19;100.00;100355.72;5008130;28;20189;-42
2023/03/30 03:25:21;;;;;;;57.90;41.72;;;;;;;7.24;100.00;100331.56;4991753;28;20234;-45
2023/03/30 03:28:00;;;;;;;52.35;39.65;;;;;;;7.24;100.00;100339.56;4991991;28;20236;-45
2023/03/30 03:30:32;;;;;;;53.42;41.22;;;;;;;7.24;100.00;100336.91;4992992;28;20154;-48
2023/03/30 03:33:07;;;;;;;52.60;39.53;;;;;;;7.24;100.00;100304.94;4993019;28;20263;-44
2023/03/30 03:35:34;;;;;;;53.03;39.72;;;;;;;7.26;100.00;100296.88;4975710;28;20198;-44
2023/03/30 03:38:05;;;;;;;49.60;38.35;;;;;;;7.26;100.00;100284.44;4991299;28;20177;-43
2023/03/30 03:40:30;;;;;;;52.97;38.88;;;;;;;7.26;100.00;100283.53;4991431;28;20173;-44
2023/03/30 03:42:56;;;;;;;54.83;39.40;;;;;;;7.26;100.00;100271.13;4991247;28;20272;-48
2023/03/30 03:45:23;;;;;;;52.78;38.42;;;;;;;7.28;100.00;100274.59;4991265;28;20227;-44
2023/03/30 03:47:54;;;;;;;49.88;37.13;;;;;;;7.27;100.00;100261.31;5011916;28;20287;-47
2023/03/30 03:50:30;;;;;;;48.00;37.75;;;;;;;7.26;100.00;100257.78;5006183;28;20189;-44
2023/03/30 03:52:56;;;;;;;50.20;37.95;;;;;;;7.27;100.00;100256.00;5007837;28;20798;-46
2023/03/30 03:55:22;;;;;;;51.95;36.85;;;;;;;7.28;100.00;100253.28;5003371;28;20614;-47
2023/03/30 03:57:48;;;;;;;49.33;37.13;;;;;;;7.31;100.00;100268.28;5012356;28;20187;-45
2023/03/30 04:00:16;;;;;;;49.00;36.90;;;;;;;7.30;100.00;100254.06;4996632;28;20200;-45
2023/03/30 04:02:45;;;;;;;48.95;35.80;;;;;;;7.29;100.00;100244.34;5000055;28;20307;-45
2023/03/30 04:05:11;;;;;;;47.22;36.85;;;;;;;7.28;100.00;100247.97;5005180;28;20230;-47
2023/03/30 04:07:37;;;;;;;51.28;36.50;;;;;;;7.27;100.00;100246.19;4999985;28;20185;-46
2023/03/30 04:10:04;;;;;;;51.15;37.35;;;;;;;7.29;100.00;100233.69;5000932;28;20176;-45
2023/03/30 04:12:56;;;;;;;52.15;37.33;;;;;;;7.29;100.00;100238.16;5004878;28;20683;-47
2023/03/30 04:15:38;;;;;;;46.55;34.22;;;;;;;7.32;100.00;100220.25;5011827;28;20594;-47
2023/03/30 04:18:22;;;;;;;49.50;37.25;;;;;;;7.34;100.00;100234.41;4998239;28;20290;-46
2023/03/30 04:20:48;;;;;;;54.72;36.90;;;;;;;7.35;100.00;100222.81;4999239;28;20181;-46
2023/03/30 04:23:34;;;;;;;51.40;34.88;;;;;;;7.37;100.00;100201.47;5002001;28;20296;-47
2023/03/30 04:26:31;;;;;;;48.05;35.97;;;;;;;7.38;100.00;100201.38;5004589;28;20220;-43
2023/03/30 04:29:28;;;;;;;49.22;35.28;;;;;;;7.40;100.00;100209.34;4995884;28;20189;-43
2023/03/30 04:32:12;;;;;;;49.70;35.80;;;;;;;7.45;100.00;100206.50;5003125;28;20192;-44
2023/03/30 04:34:46;;;;;;;51.17;35.22;;;;;;;7.46;100.00;100200.28;4994570;28;20205;-42
2023/03/30 04:37:22;;;;;;;46.15;35.72;;;;;;;7.45;100.00;100217.16;5004382;28;20788;-43
2023/03/30 04:40:08;;;;;;;46.10;35.28;;;;;;;7.49;100.00;100203.69;5000342;28;20188;-44
2023/03/30 04:42:52;;;;;;;45.70;34.05;;;;;;;7.52;100.00;100219.59;4997157;28;20192;-45
2023/03/30 04:45:52;;;;;;;44.75;33.28;;;;;;;7.55;100.00;100208.78;4996010;28;20729;-42
2023/03/30 04:48:40;;;;;;;42.35;32.83;;;;;;;7.54;100.00;100215.06;5000917;28;20193;-43
2023/03/30 04:51:29;;;;;;;46.83;33.28;;;;;;;7.55;100.00;100198.13;5000705;28;20190;-45
2023/03/30 04:54:28;;;;;;;45.42;32.72;;;;;;;7.56;100.00;100199.00;5004877;28;20627;-44
2023/03/30 04:57:13;;;;;;;48.63;34.00;;;;;;;7.56;100.00;100212.31;5004259;28;20208;-49
2023/03/30 05:00:07;;;;;;;46.80;33.67;;;;;;;7.56;100.00;100196.31;4997525;28;20204;-48
2023/03/30 05:02:59;;;;;;;41.03;33.08;;;;;;;7.55;100.00;100187.47;5005894;28;20216;-48
2023/03/30 05:05:43;;;;;;;44.95;33.35;;;;;;;7.56;100.00;100156.34;4995043;28;20220;-48
2023/03/30 05:08:34;;;;;;;43.50;32.38;;;;;;;7.57;100.00;100158.09;4983571;28;20201;-48
2023/03/30 05:11:35;;;;;;;44.20;32.40;;;;;;;7.57;100.00;100166.09;4988392;28;20192;-48
2023/03/30 05:14:19;;;;;;;41.65;32.35;;;;;;;7.56;100.00;100162.53;5000509;28;20215;-48
2023/03/30 05:16:55;;;;;;;41.10;31.80;;;;;;;7.56;100.00;100145.69;5004028;28;20229;-46
2023/03/30 05:19:20;;;;;;;40.95;32.38;;;;;;;7.56;100.00;100146.53;4994849;28;20660;-46
2023/03/30 05:21:55;;;;;;;46.42;32.92;;;;;;;7.58;100.00;100152.69;4999386;28;20190;-46
2023/03/30 05:24:46;;;;;;;40.88;31.60;;;;;;;7.57;100.00;100137.63;4996246;28;20208;-48
2023/03/30 05:27:30;;;;;;;42.90;32.03;;;;;;;7.58;100.00;100131.38;5000181;28;20646;-49
2023/03/30 05:30:16;;;;;;;43.25;31.58;;;;;;;7.57;100.00;100124.31;5005366;28;20189;-49
2023/03/30 05:33:02;;;;;;;38.92;31.33;;;;;;;7.59;100.00;100133.13;4995130;28;20184;-48
2023/03/30 05:35:48;;;;;;;42.10;30.48;;;;;;;7.62;100.00;100124.13;5003881;28;20717;-47
2023/03/30 05:38:32;;;;;;;41.00;31.13;;;;;;;7.65;100.00;100132.00;4999726;28;20181;-42
2023/03/30 05:41:26;;;;;;;40.17;29.55;;;;;;;7.64;100.00;100127.63;4974287;28;20189;-43
2023/03/30 05:44:15;;;;;;;38.53;29.65;;;;;;;7.65;100.00;100134.66;4989619;28;20295;-42
2023/03/30 05:47:06;;;;;;;42.35;30.05;;;;;;;7.66;100.00;100128.44;4973981;28;20217;-43
2023/03/30 05:49:48;;;;;;;40.13;28.92;;;;;;;7.68;100.00;100123.91;5002914;28;20165;-46
2023/03/30 05:52:23;;;;;;;39.17;30.45;;;;;;;7.73;100.00;100121.06;4972615;28;20177;-43
2023/03/30 05:55:17;;;;;;;40.58;29.95;;;;;;;7.77;100.00;100120.88;5004490;28;20235;-43
2023/03/30 05:57:55;;;;;;;41.08;31.23;;;;;;;7.83;100.00;100118.00;4987492;28;20416;-42
2023/03/30 06:00:49;;;;;;;36.15;27.92;;;;;;;7.83;100.00;100110.00;5004588;28;20272;-42
2023/03/30 06:03:26;;;;;;;35.75;27.88;;;;;;;7.97;100.00;100111.25;4987560;28;20200;-46
2023/03/30 06:05:52;;;;;;;37.45;29.63;;;;;;;7.97;100.00;100108.59;5004653;28;20281;-47
2023/03/30 06:08:19;;;;;;;44.28;30.20;;;;;;;7.98;100.00;100099.63;4987929;28;20466;-44
2023/03/30 06:10:54;;;;;;;34.58;27.45;;;;;;;8.05;100.00;100098.50;4989571;28;20650;-45
2023/03/30 06:13:21;;;;;;;33.25;27.02;;;;;;;8.06;100.00;100073.53;5005239;28;20498;-44
2023/03/30 06:15:50;;;;;;;34.58;27.60;;;;;;;8.09;100.00;100080.53;5007251;28;20196;-48
2023/03/30 06:18:21;;;;;;;36.53;27.40;;;;;;;8.09;100.00;100075.19;4996824;28;20201;-48
2023/03/30 06:21:00;;;;;;;33.40;27.17;;;;;;;8.10;100.00;100080.50;4996492;28;20196;-47
2023/03/30 06:23:27;;;;;;;34.30;27.50;;;;;;;8.13;100.00;100095.50;5012442;28;20305;-48
2023/03/30 06:25:56;;;;;;;32.08;25.52;;;;;;;8.18;100.00;100093.53;5004202;28;20213;-47
2023/03/30 06:28:27;;;;;;;30.05;23.92;;;;;;;8.23;100.00;100097.75;5006599;28;20185;-46
2023/03/30 06:30:53;;;;;;;29.73;24.20;;;;;;;8.28;100.00;100091.34;5001161;28;20188;-47
2023/03/30 06:33:22;;;;;;;27.45;23.38;;;;;;;8.36;100.00;100083.91;5003085;28;20165;-49
2023/03/30 06:35:54;;;;;;;28.38;22.58;;;;;;;8.43;100.00;100086.28;4999937;28;20636;-47
2023/03/30 06:38:22;;;;;;;30.63;21.75;;;;;;;8.47;100.00;100094.19;5015246;28;20203;-48
2023/03/30 06:40:50;;;;;;;29.83;21.80;;;;;;;8.50;100.00;100097.56;5020682;28;20331;-47
2023/03/30 06:43:22;;;;;;;25.85;20.90;;;;;;;8.56;100.00;100085.78;5000741;28;20185;-49
2023/03/30 06:46:00;;;;;;;27.90;21.55;;;;;;;8.55;100.00;100074.25;4985433;28;20216;-48
2023/03/30 06:48:26;;;;;;;25.27;20.33;;;;;;;8.60;100.00;100068.69;5004621;28;20304;-46
2023/03/30 06:51:13;;;;;;;25.13;20.13;;;;;;;8.61;100.00;100079.28;4996862;28;20229;-49
2023/03/30 06:53:39;;;;;;;24.95;21.23;;;;;;;8.65;100.00;100078.22;5001119;28;20178;-47
2023/03/30 06:56:06;;;;;;;27.10;20.40;;;;;;;8.68;100.00;100079.03;5007252;28;20189;-47
2023/03/30 06:58:37;;;;;;;25.05;19.17;;;;;;;8.66;100.00;100074.66;5001034;28;20667;-48
2023/03/30 07:01:12;;;;;;;25.38;20.70;;;;;;;8.72;100.00;100067.28;5005162;28;20544;-46
2023/03/30 07:04:10;;;;;;;24.45;20.38;;;;;;;8.79;100.00;100044.72;4999868;28;20261;-50
2023/03/30 07:06:58;;;;;;;24.13;19.00;;;;;;;8.84;100.00;100066.78;4999733;28;20299;-47
2023/03/30 07:09:24;;;;;;;23.65;20.73;;;;;;;8.82;100.00;100068.66;5001486;28;20272;-48
2023/03/30 07:11:51;;;;;;;24.35;19.55;;;;;;;8.87;100.00;100056.81;4997492;28;20192;-47
2023/03/30 07:14:16;;;;;;;24.77;20.83;;;;;;;8.83;100.00;100054.34;5002832;28;20316;-48
2023/03/30 07:16:43;;;;;;;25.20;20.20;;;;;;;8.84;100.00;100061.44;4995343;28;20617;-46
2023/03/30 07:19:09;;;;;;;23.95;20.10;;;;;;;8.83;100.00;100049.00;5006953;28;20257;-49
2023/03/30 07:21:35;;;;;;;23.58;20.05;;;;;;;8.83;100.00;100065.03;5016116;28;20233;-49
2023/03/30 07:24:01;;;;;;;25.27;20.67;;;;;;;8.83;100.00;100052.56;4993515;28;20557;-48
2023/03/30 07:26:32;;;;;;;26.02;20.40;;;;;;;8.81;100.00;100054.44;5000346;28;20726;-47
2023/03/30 07:29:04;;;;;;;26.75;21.38;;;;;;;8.80;100.00;100055.34;5008511;28;20181;-48
2023/03/30 07:31:30;;;;;;;27.38;21.38;;;;;;;8.81;100.00;100058.88;5010773;28;20187;-43
2023/03/30 07:33:56;;;;;;;25.15;21.15;;;;;;;8.84;100.00;100054.28;5006624;28;20209;-42
2023/03/30 07:36:24;;;;;;;30.10;20.65;;;;;;;8.86;100.00;100047.06;4990150;28;20219;-45
2023/03/30 07:38:51;;;;;;;25.50;20.75;;;;;;;8.93;100.00;100030.78;5011418;28;20185;-42
2023/03/30 07:41:18;;;;;;;27.55;20.55;;;;;;;8.99;100.00;100042.06;4994397;28;20730;-44
2023/03/30 07:43:48;;;;;;;24.95;21.00;;;;;;;9.13;100.00;100049.47;4998487;28;20209;-43
2023/03/30 07:46:14;;;;;;;28.33;20.90;;;;;;;9.25;100.00;100037.38;5007150;28;20287;-41
2023/03/30 07:48:44;;;;;;;26.85;22.00;;;;;;;9.51;100.00;100045.97;5005524;28;20184;-40
2023/03/30 07:51:12;;;;;;;24.52;19.90;;;;;;;9.70;100.00;100047.69;5012732;28;20177;-44
2023/03/30 07:53:47;;;;;;;24.55;18.98;;;;;;;9.71;100.00;100051.28;4997834;28;20181;-43
2023/03/30 07:56:20;;;;;;;25.90;19.42;;;;;;;9.78;100.00;100050.03;5012043;28;20215;-43
2023/03/30 07:58:48;;;;;;;22.85;18.35;;;;;;;9.78;100.00;100052.72;5009921;28;20203;-43
2023/03/30 08:01:16;;;;;;;20.35;16.90;;;;;;;9.79;100.00;100050.91;5000450;28;20183;-44
2023/03/30 08:04:08;;;;;;;20.17;16.17;;;;;;;9.82;100.00;100043.59;4991116;28;20208;-45
2023/03/30 08:06:35;;;;;;;18.85;15.82;;;;;;;9.81;100.00;100036.50;5009571;28;20217;-41
2023/03/30 08:09:01;;;;;;;20.88;15.98;;;;;;;9.87;100.00;100036.22;5009396;28;20194;-42
2023/03/30 08:11:27;;;;;;;17.23;14.95;;;;;;;9.89;100.00;100041.50;5006917;28;20337;-45
2023/03/30 08:13:52;;;;;;;17.83;15.75;;;;;;;10.02;100.00;100039.97;5000928;28;20316;-44
2023/03/30 08:16:18;;;;;;;19.52;14.85;;;;;;;10.11;100.00;100038.66;4995304;28;20675;-42
2023/03/30 08:18:46;;;;;;;20.17;15.43;;;;;;;10.25;100.00;100021.88;5003536;28;20561;-41
2023/03/30 08:21:11;;;;;;;17.70;14.68;;;;;;;10.33;100.00;100022.41;4997535;28;20201;-44
2023/03/30 08:23:37;;;;;;;15.80;13.35;;;;;;;10.40;100.00;100017.63;4999608;28;20202;-43
2023/03/30 08:26:02;;;;;;;16.33;13.30;;;;;;;10.49;100.00;100012.69;5005891;28;20627;-44
2023/03/30 08:28:28;;;;;;;15.90;13.25;;;;;;;10.46;100.00;100018.16;5008099;28;20201;-43
2023/03/30 08:30:53;;;;;;;16.85;12.75;;;;;;;10.46;100.00;100012.81;5000157;28;20565;-43
2023/03/30 08:33:22;;;;;;;14.32;12.20;;;;;;;10.48;100.00;100013.59;5005209;28;20186;-45
2023/03/30 08:35:48;;;;;;;15.90;11.95;;;;;;;10.54;100.00;99999.03;5000238;28;20280;-42
2023/03/30 08:38:15;;;;;;;16.05;10.85;;;;;;;10.47;100.00;100003.84;5007789;28;20549;-45
2023/03/30 08:40:46;;;;;;;16.55;11.20;;;;;;;10.56;100.00;100007.88;4993340;28;20248;-42
2023/03/30 08:43:26;;;;;;;12.40;10.52;;;;;;;10.55;100.00;100000.75;5001901;28;20182;-43
2023/03/30 08:45:52;;;;;;;11.30;10.10;;;;;;;10.62;100.00;99995.97;4999279;28;20205;-47
2023/03/30 08:48:24;;;;;;;13.88;10.00;;;;;;;10.66;100.00;99992.19;5000532;28;20727;-47
2023/03/30 08:51:07;;;;;;;12.50;9.90;;;;;;;10.69;100.00;99986.66;4995568;28;20174;-48
2023/03/30 08:53:33;;;;;;;16.95;9.57;;;;;;;10.77;100.00;99987.13;4997067;28;20177;-48
2023/03/30 08:56:06;;;;;;;12.90;9.57;;;;;;;10.93;100.00;99982.69;4999068;28;20600;-50
2023/03/30 08:59:09;;;;;;;16.73;9.43;;;;;;;11.04;100.00;99978.56;4997874;28;20176;-48
2023/03/30 09:01:56;;;;;;;14.40;9.23;;;;;;;10.99;100.00;99983.31;4998183;28;20176;-47
2023/03/30 09:04:26;;;;;;;10.40;8.10;;;;;;;10.98;100.00;99982.44;5001273;28;20200;-48
2023/03/30 09:06:55;;;;;;;12.52;8.88;;;;;;;11.00;100.00;99975.19;5001653;28;20627;-46
2023/03/30 09:09:24;;;;;;;13.05;8.68;;;;;;;11.04;100.00;99976.75;4994228;28;20707;-48
2023/03/30 09:12:04;;;;;;;16.08;9.23;;;;;;;11.04;100.00;99971.41;4994931;28;20176;-46
2023/03/30 09:14:39;;;;;;;13.88;8.35;;;;;;;11.08;100.00;99970.25;4994458;28;20244;-47
2023/03/30 09:17:15;;;;;;;15.95;8.85;;;;;;;10.99;100.00;99968.09;4995947;28;20204;-49
2023/03/30 09:19:54;;;;;;;8.65;7.50;;;;;;;11.00;100.00;99964.47;4996318;28;20196;-46
2023/03/30 09:22:20;;;;;;;11.98;7.55;;;;;;;10.95;100.00;99961.16;4997286;28;20235;-48
2023/03/30 09:24:46;;;;;;;13.32;8.05;;;;;;;10.95;100.00;99968.34;4994731;28;20254;-44
2023/03/30 09:27:24;;;;;;;11.15;8.13;;;;;;;10.96;100.00;99965.56;5007308;28;20599;-46
2023/03/30 09:29:53;;;;;;;11.90;8.05;;;;;;;11.01;100.00;99970.69;5000487;28;20181;-46
2023/03/30 09:32:27;;;;;;;12.63;7.85;;;;;;;10.97;100.00;99966.44;4997392;28;20227;-45
2023/03/30 09:35:09;;;;;;;11.80;8.13;;;;;;;11.03;100.00;99964.28;4998634;28;20533;-45
2023/03/30 09:37:35;;;;;;;12.38;7.43;;;;;;;11.16;100.00;99960.97;4995328;28;20169;-47
2023/03/30 09:40:19;;;;;;;12.95;8.00;;;;;;;11.21;100.00;99956.19;4994102;28;20199;-47
2023/03/30 09:42:54;;;;;;;13.73;7.97;;;;;;;11.38;100.00;99956.13;4997337;28;20769;-45
2023/03/30 09:45:26;;;;;;;10.73;6.85;;;;;;;11.59;100.00;99937.09;4995066;28;20680;-46
2023/03/30 09:47:51;;;;;;;10.48;7.57;;;;;;;11.67;100.00;99949.13;4997991;28;20181;-46
2023/03/30 09:50:22;;;;;;;12.57;6.85;;;;;;;11.87;100.00;99944.44;5001037;28;20742;-44
2023/03/30 09:52:56;;;;;;;10.07;6.80;;;;;;;11.93;100.00;99941.44;4995114;28;20272;-46
2023/03/30 09:55:21;;;;;;;10.75;6.90;;;;;;;11.92;100.00;99943.25;4998499;28;20173;-47
2023/03/30 09:57:51;;;;;;;10.52;6.43;;;;;;;11.92;100.00;99932.50;4995065;28;20267;-46
2023/03/30 10:00:25;;;;;;;9.57;6.32;;;;;;;11.99;100.00;99941.06;5001973;28;20193;-46
2023/03/30 10:03:03;;;;;;;8.52;5.90;;;;;;;11.95;100.00;99939.53;4989328;28;20162;-44
2023/03/30 10:05:31;;;;;;;8.80;5.65;;;;;;;12.04;100.00;99935.44;4990686;28;20213;-46
2023/03/30 10:08:00;;;;;;;11.65;5.78;;;;;;;12.12;100.00;99934.03;4990951;28;20252;-45
2023/03/30 10:10:25;;;;;;;11.10;5.15;;;;;;;12.27;100.00;99920.66;4990644;28;20175;-42
2023/03/30 10:13:00;;;;;;;10.25;5.45;;;;;;;12.46;100.00;99917.72;4990498;28;20252;-46
2023/03/30 10:15:30;;;;;;;11.73;5.22;;;;;;;12.52;100.00;99920.03;4990428;28;20185;-45
2023/03/30 10:18:01;;;;;;;12.60;5.00;;;;;;;12.44;100.00;99915.13;4990464;28;20177;-45
2023/03/30 10:20:34;;;;;;;10.00;4.97;;;;;;;12.42;100.00;99910.78;4990485;28;20162;-46
2023/03/30 10:23:12;;;;;;;8.82;4.55;;;;;;;12.53;100.00;99900.28;4990499;28;20248;-45
2023/03/30 10:25:41;;;;;;;10.20;4.40;;;;;;;12.66;100.00;99909.31;4990177;28;20324;-44
2023/03/30 10:28:28;;;;;;;12.00;4.93;;;;;;;12.75;100.00;99906.03;4990332;28;20510;-49
2023/03/30 10:30:57;;;;;;;8.40;4.45;;;;;;;12.63;100.00;99906.78;4990480;28;20177;-45
2023/03/30 10:33:24;;;;;;;10.55;5.07;;;;;;;12.66;100.00;99912.00;4990176;28;20632;-47
2023/03/30 10:35:52;;;;;;;7.53;4.30;;;;;;;12.75;100.00;99903.34;4990325;28;20193;-45
2023/03/30 10:38:19;;;;;;;9.63;4.53;;;;;;;12.82;100.00;99909.22;4990049;28;20166;-45
2023/03/30 10:40:46;;;;;;;12.35;3.83;;;;;;;12.83;100.00;99907.38;4994063;28;20661;-48
2023/03/30 10:43:22;;;;;;;9.73;4.07;;;;;;;12.79;100.00;99912.09;4990328;28;20696;-45
2023/03/30 10:45:50;;;;;;;9.20;4.00;;;;;;;12.75;100.00;99915.94;4998353;28;20219;-45
2023/03/30 10:48:22;;;;;;;10.23;4.03;;;;;;;12.92;100.00;99920.25;4999131;28;20658;-46
2023/03/30 10:51:19;;;;;;;7.28;3.10;;;;;;;12.83;100.00;99902.00;4994439;28;20200;-46
2023/03/30 10:53:57;;;;;;;7.72;3.33;;;;;;;12.87;100.00;99907.09;4992365;28;20177;-48
2023/03/30 10:56:23;;;;;;;8.38;3.65;;;;;;;12.78;100.00;99903.16;4999109;28;20199;-47
2023/03/30 10:59:13;;;;;;;10.98;3.63;;;;;;;12.82;100.00;99909.22;4993300;28;20197;-48
2023/03/30 11:01:57;;;;;;;11.43;4.03;;;;;;;12.62;100.00;99907.75;4998233;28;20207;-48
2023/03/30 11:04:42;;;;;;;10.55;3.63;;;;;;;12.57;100.00;99901.78;4999507;28;20609;-49
2023/03/30 11:07:28;;;;;;;7.60;3.58;;;;;;;12.55;100.00;99915.34;5000975;28;20216;-47
2023/03/30 11:10:01;;;;;;;6.95;3.33;;;;;;;12.66;100.00;99906.63;4982295;28;20600;-47
2023/03/30 11:12:36;;;;;;;8.10;3.53;;;;;;;12.98;100.00;99892.97;4995034;28;20786;-49
2023/03/30 11:15:14;;;;;;;10.25;3.55;;;;;;;13.10;100.00;99896.72;5002031;28;20199;-47
2023/03/30 11:18:01;;;;;;;10.63;3.13;;;;;;;13.20;100.00;99887.94;4999589;28;20176;-49
2023/03/30 11:20:56;;;;;;;7.30;2.90;;;;;;;13.13;100.00;99896.53;4987460;28;20200;-46
2023/03/30 11:23:26;;;;;;;7.43;2.80;;;;;;;13.03;100.00;99896.25;4997972;28;20328;-48
2023/03/30 11:26:07;;;;;;;8.82;3.05;;;;;;;12.91;100.00;99878.19;4997318;28;20212;-48
2023/03/30 11:28:57;;;;;;;9.57;3.50;;;;;;;12.88;100.00;99873.00;5001724;28;20498;-46
2023/03/30 11:31:26;;;;;;;9.27;3.80;;;;;;;12.83;100.00;99900.19;4997551;28;20256;-47
2023/03/30 11:34:02;;;;;;;15.43;4.53;;;;;;;12.40;100.00;99943.13;4997108;28;20195;-46
2023/03/30 11:36:54;;;;;;;18.58;4.53;;;;;;;11.61;100.00;99949.50;5001490;28;20267;-46
2023/03/30 11:39:28;;;;;;;13.40;3.38;;;;;;;11.34;100.00;99954.56;4998280;28;20217;-46
2023/03/30 11:42:27;;;;;;;13.15;4.00;;;;;;;11.20;100.00;99939.25;4999671;28;20164;-46
2023/03/30 11:44:52;;;;;;;12.48;3.80;;;;;;;11.13;100.00;99952.13;4984319;28;20301;-48
2023/03/30 11:47:37;;;;;;;15.05;4.40;;;;;;;11.44;100.00;99947.75;5016022;28;20577;-46